sensor_id;sensor_type;location;lat;lon;timestamp;temperature;humidity
70068;DHT22;57425;51.616;6.680;2023-07-20T00:01:45;22.40;64.00
70068;DHT22;57425;51.616;6.680;2023-07-20T00:04:13;22.30;63.90
70068;DHT22;57425;51.616;6.680;2023-07-20T00:06:39;22.30;64.00
70068;DHT22;57425;51.616;6.680;2023-07-20T00:09:06;22.30;64.00
70068;DHT22;57425;51.616;6.680;2023-07-20T00:11:34;22.30;64.00
70068;DHT22;57425;51.616;6.680;2023-07-20T00:14:01;22.30;64.10
70068;DHT22;57425;51.616;6.680;2023-07-20T00:16:27;22.30;64.10
70068;DHT22;57425;51.616;6.680;2023-07-20T00:18:53;22.30;64.10
70068;DHT22;57425;51.616;6.680;2023-07-20T00:21:18;22.30;64.20
70068;DHT22;57425;51.616;6.680;2023-07-20T00:23:44;22.30;64.20
70068;DHT22;57425;51.616;6.680;2023-07-20T00:26:10;22.20;64.10
70068;DHT22;57425;51.616;6.680;2023-07-20T00:28:35;22.30;64.20
70068;DHT22;57425;51.616;6.680;2023-07-20T00:31:01;22.20;64.20
70068;DHT22;57425;51.616;6.680;2023-07-20T00:33:28;22.20;64.30
70068;DHT22;57425;51.616;6.680;2023-07-20T00:35:54;22.20;64.90
70068;DHT22;57425;51.616;6.680;2023-07-20T00:38:19;22.20;64.40
70068;DHT22;57425;51.616;6.680;2023-07-20T00:40:46;22.20;64.40
70068;DHT22;57425;51.616;6.680;2023-07-20T00:43:12;22.20;64.40
70068;DHT22;57425;51.616;6.680;2023-07-20T00:45:38;22.20;64.40
70068;DHT22;57425;51.616;6.680;2023-07-20T00:48:05;22.20;64.30
70068;DHT22;57425;51.616;6.680;2023-07-20T00:50:32;22.20;64.30
70068;DHT22;57425;51.616;6.680;2023-07-20T00:52:58;22.20;64.30
70068;DHT22;57425;51.616;6.680;2023-07-20T00:55:24;22.10;64.40
70068;DHT22;57425;51.616;6.680;2023-07-20T00:57:51;22.10;64.40
70068;DHT22;57425;51.616;6.680;2023-07-20T01:00:17;22.10;64.50
70068;DHT22;57425;51.616;6.680;2023-07-20T01:02:43;22.10;64.60
70068;DHT22;57425;51.616;6.680;2023-07-20T01:05:09;22.10;64.70
70068;DHT22;57425;51.616;6.680;2023-07-20T01:07:55;22.10;64.80
70068;DHT22;57425;51.616;6.680;2023-07-20T01:11:01;22.10;64.80
70068;DHT22;57425;51.616;6.680;2023-07-20T01:13:31;22.10;65.00
70068;DHT22;57425;51.616;6.680;2023-07-20T01:16:00;22.00;64.70
70068;DHT22;57425;51.616;6.680;2023-07-20T01:18:26;22.00;64.80
70068;DHT22;57425;51.616;6.680;2023-07-20T01:20:56;22.00;64.80
70068;DHT22;57425;51.616;6.680;2023-07-20T01:31:36;22.00;64.80
70068;DHT22;57425;51.616;6.680;2023-07-20T01:34:03;22.00;64.70
70068;DHT22;57425;51.616;6.680;2023-07-20T01:36:34;22.00;64.80
70068;DHT22;57425;51.616;6.680;2023-07-20T01:39:00;22.00;65.40
70068;DHT22;57425;51.616;6.680;2023-07-20T01:41:27;22.00;64.80
70068;DHT22;57425;51.616;6.680;2023-07-20T01:43:53;22.00;64.80
70068;DHT22;57425;51.616;6.680;2023-07-20T01:46:22;21.90;64.90
70068;DHT22;57425;51.616;6.680;2023-07-20T01:48:48;22.00;65.50
70068;DHT22;57425;51.616;6.680;2023-07-20T01:51:13;21.90;64.90
70068;DHT22;57425;51.616;6.680;2023-07-20T01:53:39;21.90;64.90
70068;DHT22;57425;51.616;6.680;2023-07-20T01:56:05;21.90;65.50
70068;DHT22;57425;51.616;6.680;2023-07-20T01:58:31;21.90;65.00
70068;DHT22;57425;51.616;6.680;2023-07-20T02:00:56;21.90;65.00
70068;DHT22;57425;51.616;6.680;2023-07-20T02:03:23;21.90;65.10
70068;DHT22;57425;51.616;6.680;2023-07-20T02:05:51;21.90;65.10
70068;DHT22;57425;51.616;6.680;2023-07-20T02:08:17;21.90;65.10
70068;DHT22;57425;51.616;6.680;2023-07-20T02:10:46;21.90;65.20
70068;DHT22;57425;51.616;6.680;2023-07-20T02:13:12;21.90;65.30
70068;DHT22;57425;51.616;6.680;2023-07-20T02:15:37;21.90;65.40
70068;DHT22;57425;51.616;6.680;2023-07-20T02:18:03;21.90;65.40
70068;DHT22;57425;51.616;6.680;2023-07-20T02:20:29;21.90;65.40
70068;DHT22;57425;51.616;6.680;2023-07-20T02:22:54;21.80;65.40
70068;DHT22;57425;51.616;6.680;2023-07-20T02:25:21;21.80;65.50
70068;DHT22;57425;51.616;6.680;2023-07-20T02:27:47;21.80;65.50
70068;DHT22;57425;51.616;6.680;2023-07-20T02:30:12;21.80;65.50
70068;DHT22;57425;51.616;6.680;2023-07-20T02:32:39;21.80;65.50
70068;DHT22;57425;51.616;6.680;2023-07-20T02:35:05;21.80;65.60
70068;DHT22;57425;51.616;6.680;2023-07-20T02:37:31;21.80;65.60
70068;DHT22;57425;51.616;6.680;2023-07-20T02:39:58;21.80;65.70
70068;DHT22;57425;51.616;6.680;2023-07-20T02:42:24;21.80;65.70
70068;DHT22;57425;51.616;6.680;2023-07-20T02:44:51;21.80;66.30
70068;DHT22;57425;51.616;6.680;2023-07-20T02:47:18;21.80;65.80
70068;DHT22;57425;51.616;6.680;2023-07-20T02:49:43;21.80;65.90
70068;DHT22;57425;51.616;6.680;2023-07-20T02:52:09;21.80;65.90
70068;DHT22;57425;51.616;6.680;2023-07-20T02:54:35;21.70;65.90
70068;DHT22;57425;51.616;6.680;2023-07-20T02:57:00;21.70;65.90
70068;DHT22;57425;51.616;6.680;2023-07-20T02:59:27;21.70;65.90
70068;DHT22;57425;51.616;6.680;2023-07-20T03:01:52;21.70;66.00
70068;DHT22;57425;51.616;6.680;2023-07-20T03:04:19;21.70;66.70
70068;DHT22;57425;51.616;6.680;2023-07-20T03:06:45;21.70;66.20
70068;DHT22;57425;51.616;6.680;2023-07-20T03:09:10;21.70;66.20
70068;DHT22;57425;51.616;6.680;2023-07-20T03:11:36;21.70;66.30
70068;DHT22;57425;51.616;6.680;2023-07-20T03:14:02;21.60;66.20
70068;DHT22;57425;51.616;6.680;2023-07-20T03:16:28;21.60;66.20
70068;DHT22;57425;51.616;6.680;2023-07-20T03:18:53;21.60;66.10
70068;DHT22;57425;51.616;6.680;2023-07-20T03:21:19;21.60;66.10
70068;DHT22;57425;51.616;6.680;2023-07-20T03:23:44;21.60;66.10
70068;DHT22;57425;51.616;6.680;2023-07-20T03:26:10;21.60;66.10
70068;DHT22;57425;51.616;6.680;2023-07-20T03:28:37;21.50;66.00
70068;DHT22;57425;51.616;6.680;2023-07-20T03:31:03;21.50;66.00
70068;DHT22;57425;51.616;6.680;2023-07-20T03:33:30;21.50;66.00
70068;DHT22;57425;51.616;6.680;2023-07-20T03:35:56;21.50;66.00
70068;DHT22;57425;51.616;6.680;2023-07-20T03:38:22;21.50;66.00
70068;DHT22;57425;51.616;6.680;2023-07-20T03:40:57;21.50;66.00
70068;DHT22;57425;51.616;6.680;2023-07-20T03:43:24;21.50;66.10
70068;DHT22;57425;51.616;6.680;2023-07-20T03:45:51;21.50;66.10
70068;DHT22;57425;51.616;6.680;2023-07-20T03:48:19;21.50;66.10
70068;DHT22;57425;51.616;6.680;2023-07-20T03:50:48;21.40;66.00
70068;DHT22;57425;51.616;6.680;2023-07-20T03:53:14;21.40;66.00
70068;DHT22;57425;51.616;6.680;2023-07-20T03:55:41;21.40;65.90
70068;DHT22;57425;51.616;6.680;2023-07-20T03:58:07;21.40;65.90
70068;DHT22;57425;51.616;6.680;2023-07-20T04:00:34;21.40;66.00
70068;DHT22;57425;51.616;6.680;2023-07-20T04:03:00;21.40;66.00
70068;DHT22;57425;51.616;6.680;2023-07-20T04:05:26;21.40;66.00
70068;DHT22;57425;51.616;6.680;2023-07-20T04:07:52;21.40;66.00
70068;DHT22;57425;51.616;6.680;2023-07-20T04:10:18;21.40;66.10
70068;DHT22;57425;51.616;6.680;2023-07-20T04:12:45;21.40;66.10
70068;DHT22;57425;51.616;6.680;2023-07-20T04:15:13;21.40;66.10
70068;DHT22;57425;51.616;6.680;2023-07-20T04:17:39;21.30;66.60
70068;DHT22;57425;51.616;6.680;2023-07-20T04:20:06;21.40;66.20
70068;DHT22;57425;51.616;6.680;2023-07-20T04:22:33;21.30;66.10
70068;DHT22;57425;51.616;6.680;2023-07-20T04:24:58;21.30;66.10
70068;DHT22;57425;51.616;6.680;2023-07-20T04:27:24;21.30;66.10
70068;DHT22;57425;51.616;6.680;2023-07-20T04:29:50;21.30;66.10
70068;DHT22;57425;51.616;6.680;2023-07-20T04:32:15;21.30;66.10
70068;DHT22;57425;51.616;6.680;2023-07-20T04:34:41;21.20;66.10
70068;DHT22;57425;51.616;6.680;2023-07-20T04:37:07;21.20;66.10
70068;DHT22;57425;51.616;6.680;2023-07-20T04:39:33;21.30;66.20
70068;DHT22;57425;51.616;6.680;2023-07-20T04:41:58;21.20;66.10
70068;DHT22;57425;51.616;6.680;2023-07-20T04:44:24;21.30;66.20
70068;DHT22;57425;51.616;6.680;2023-07-20T04:46:50;21.20;66.20
70068;DHT22;57425;51.616;6.680;2023-07-20T04:49:16;21.20;66.20
70068;DHT22;57425;51.616;6.680;2023-07-20T04:51:42;21.20;66.10
70068;DHT22;57425;51.616;6.680;2023-07-20T04:54:08;21.20;66.10
70068;DHT22;57425;51.616;6.680;2023-07-20T04:56:33;21.20;66.10
70068;DHT22;57425;51.616;6.680;2023-07-20T04:58:59;21.10;65.90
70068;DHT22;57425;51.616;6.680;2023-07-20T05:01:25;21.10;66.50
70068;DHT22;57425;51.616;6.680;2023-07-20T05:03:52;21.10;65.90
70068;DHT22;57425;51.616;6.680;2023-07-20T05:06:18;21.10;65.70
70068;DHT22;57425;51.616;6.680;2023-07-20T05:08:43;21.10;65.70
70068;DHT22;57425;51.616;6.680;2023-07-20T05:11:09;21.10;65.70
70068;DHT22;57425;51.616;6.680;2023-07-20T05:13:36;21.10;65.70
70068;DHT22;57425;51.616;6.680;2023-07-20T05:16:01;21.10;65.70
70068;DHT22;57425;51.616;6.680;2023-07-20T05:18:27;21.10;65.70
70068;DHT22;57425;51.616;6.680;2023-07-20T05:20:53;21.10;65.60
70068;DHT22;57425;51.616;6.680;2023-07-20T05:23:20;21.10;65.60
70068;DHT22;57425;51.616;6.680;2023-07-20T05:25:46;21.00;65.50
70068;DHT22;57425;51.616;6.680;2023-07-20T05:28:13;21.00;65.50
70068;DHT22;57425;51.616;6.680;2023-07-20T05:30:39;21.00;65.50
70068;DHT22;57425;51.616;6.680;2023-07-20T05:33:05;21.00;65.50
70068;DHT22;57425;51.616;6.680;2023-07-20T05:35:30;21.00;65.60
70068;DHT22;57425;51.616;6.680;2023-07-20T05:37:56;21.00;65.60
70068;DHT22;57425;51.616;6.680;2023-07-20T05:40:22;21.00;65.70
70068;DHT22;57425;51.616;6.680;2023-07-20T05:42:48;21.00;65.70
70068;DHT22;57425;51.616;6.680;2023-07-20T05:45:17;21.00;66.30
70068;DHT22;57425;51.616;6.680;2023-07-20T05:47:43;21.00;65.70
70068;DHT22;57425;51.616;6.680;2023-07-20T05:50:09;21.00;65.70
70068;DHT22;57425;51.616;6.680;2023-07-20T05:52:35;21.00;65.70
70068;DHT22;57425;51.616;6.680;2023-07-20T05:55:00;21.00;65.70
70068;DHT22;57425;51.616;6.680;2023-07-20T05:57:26;21.00;65.70
70068;DHT22;57425;51.616;6.680;2023-07-20T05:59:51;21.00;65.80
70068;DHT22;57425;51.616;6.680;2023-07-20T06:02:17;21.00;65.90
70068;DHT22;57425;51.616;6.680;2023-07-20T06:04:43;20.90;65.90
70068;DHT22;57425;51.616;6.680;2023-07-20T06:07:08;21.00;66.00
70068;DHT22;57425;51.616;6.680;2023-07-20T06:09:34;21.00;66.00
70068;DHT22;57425;51.616;6.680;2023-07-20T06:12:00;21.00;66.00
70068;DHT22;57425;51.616;6.680;2023-07-20T06:14:25;21.00;66.00
70068;DHT22;57425;51.616;6.680;2023-07-20T06:16:51;21.00;65.90
70068;DHT22;57425;51.616;6.680;2023-07-20T06:19:17;20.90;65.90
70068;DHT22;57425;51.616;6.680;2023-07-20T06:21:42;21.00;66.00
70068;DHT22;57425;51.616;6.680;2023-07-20T06:24:08;21.00;65.80
70068;DHT22;57425;51.616;6.680;2023-07-20T06:26:34;21.00;65.80
70068;DHT22;57425;51.616;6.680;2023-07-20T06:29:05;21.00;65.80
70068;DHT22;57425;51.616;6.680;2023-07-20T06:31:35;20.90;66.20
70068;DHT22;57425;51.616;6.680;2023-07-20T06:34:01;21.00;66.10
70068;DHT22;57425;51.616;6.680;2023-07-20T06:36:26;20.90;65.50
70068;DHT22;57425;51.616;6.680;2023-07-20T06:38:52;20.90;65.50
70068;DHT22;57425;51.616;6.680;2023-07-20T06:41:18;20.90;65.40
70068;DHT22;57425;51.616;6.680;2023-07-20T06:43:44;20.90;65.40
70068;DHT22;57425;51.616;6.680;2023-07-20T06:46:10;20.90;65.40
70068;DHT22;57425;51.616;6.680;2023-07-20T06:48:36;20.90;65.40
70068;DHT22;57425;51.616;6.680;2023-07-20T06:51:01;20.90;65.50
70068;DHT22;57425;51.616;6.680;2023-07-20T06:53:28;21.00;65.60
70068;DHT22;57425;51.616;6.680;2023-07-20T06:55:54;20.90;65.50
70068;DHT22;57425;51.616;6.680;2023-07-20T06:58:19;20.90;65.60
70068;DHT22;57425;51.616;6.680;2023-07-20T07:00:47;20.90;66.10
70068;DHT22;57425;51.616;6.680;2023-07-20T07:03:12;20.90;65.40
70068;DHT22;57425;51.616;6.680;2023-07-20T07:05:38;20.90;65.30
70068;DHT22;57425;51.616;6.680;2023-07-20T07:08:07;20.90;65.20
70068;DHT22;57425;51.616;6.680;2023-07-20T07:10:34;20.90;65.10
70068;DHT22;57425;51.616;6.680;2023-07-20T07:13:01;20.90;65.10
70068;DHT22;57425;51.616;6.680;2023-07-20T07:15:26;20.90;65.10
70068;DHT22;57425;51.616;6.680;2023-07-20T07:17:53;20.90;65.10
70068;DHT22;57425;51.616;6.680;2023-07-20T07:20:19;20.90;65.10
70068;DHT22;57425;51.616;6.680;2023-07-20T07:22:45;20.90;65.10
70068;DHT22;57425;51.616;6.680;2023-07-20T07:25:11;20.90;65.70
70068;DHT22;57425;51.616;6.680;2023-07-20T07:27:38;20.90;65.10
70068;DHT22;57425;51.616;6.680;2023-07-20T07:30:04;20.90;65.10
70068;DHT22;57425;51.616;6.680;2023-07-20T07:32:30;20.90;65.10
70068;DHT22;57425;51.616;6.680;2023-07-20T07:34:56;20.90;65.10
70068;DHT22;57425;51.616;6.680;2023-07-20T07:37:23;20.90;65.20
70068;DHT22;57425;51.616;6.680;2023-07-20T07:39:49;20.90;65.30
70068;DHT22;57425;51.616;6.680;2023-07-20T07:42:15;20.90;65.10
70068;DHT22;57425;51.616;6.680;2023-07-20T07:44:40;20.90;65.00
70068;DHT22;57425;51.616;6.680;2023-07-20T07:47:06;20.90;65.00
70068;DHT22;57425;51.616;6.680;2023-07-20T07:49:32;20.90;64.90
70068;DHT22;57425;51.616;6.680;2023-07-20T07:51:58;20.90;64.80
70068;DHT22;57425;51.616;6.680;2023-07-20T07:54:23;20.90;64.70
70068;DHT22;57425;51.616;6.680;2023-07-20T07:56:50;20.80;64.70
70068;DHT22;57425;51.616;6.680;2023-07-20T07:59:16;20.90;64.80
70068;DHT22;57425;51.616;6.680;2023-07-20T08:01:42;20.90;64.90
70068;DHT22;57425;51.616;6.680;2023-07-20T08:04:08;20.90;64.90
70068;DHT22;57425;51.616;6.680;2023-07-20T08:06:33;20.90;64.60
70068;DHT22;57425;51.616;6.680;2023-07-20T08:08:59;21.00;64.50
70068;DHT22;57425;51.616;6.680;2023-07-20T08:11:25;21.00;64.30
70068;DHT22;57425;51.616;6.680;2023-07-20T08:13:51;21.10;64.20
70068;DHT22;57425;51.616;6.680;2023-07-20T08:16:17;21.10;64.00
70068;DHT22;57425;51.616;6.680;2023-07-20T08:18:43;21.20;64.30
70068;DHT22;57425;51.616;6.680;2023-07-20T08:21:09;21.20;64.20
70068;DHT22;57425;51.616;6.680;2023-07-20T08:23:35;21.30;64.00
70068;DHT22;57425;51.616;6.680;2023-07-20T08:26:00;21.20;64.00
70068;DHT22;57425;51.616;6.680;2023-07-20T08:28:26;21.30;64.00
70068;DHT22;57425;51.616;6.680;2023-07-20T08:30:52;21.30;64.00
70068;DHT22;57425;51.616;6.680;2023-07-20T08:33:19;21.30;63.70
70068;DHT22;57425;51.616;6.680;2023-07-20T08:35:45;21.40;63.30
70068;DHT22;57425;51.616;6.680;2023-07-20T08:38:11;21.40;63.10
70068;DHT22;57425;51.616;6.680;2023-07-20T08:40:41;21.40;62.70
70068;DHT22;57425;51.616;6.680;2023-07-20T08:43:07;21.50;62.40
70068;DHT22;57425;51.616;6.680;2023-07-20T08:45:33;21.40;62.20
70068;DHT22;57425;51.616;6.680;2023-07-20T08:48:01;21.50;62.40
70068;DHT22;57425;51.616;6.680;2023-07-20T08:50:30;21.40;62.90
70068;DHT22;57425;51.616;6.680;2023-07-20T08:52:57;21.50;62.30
70068;DHT22;57425;51.616;6.680;2023-07-20T08:55:28;21.50;62.20
70068;DHT22;57425;51.616;6.680;2023-07-20T08:57:58;21.50;62.00
70068;DHT22;57425;51.616;6.680;2023-07-20T09:00:25;21.60;61.80
70068;DHT22;57425;51.616;6.680;2023-07-20T09:02:53;21.60;61.80
70068;DHT22;57425;51.616;6.680;2023-07-20T09:05:20;21.60;61.80
70068;DHT22;57425;51.616;6.680;2023-07-20T09:07:46;21.60;61.60
70068;DHT22;57425;51.616;6.680;2023-07-20T09:10:12;21.60;61.50
70068;DHT22;57425;51.616;6.680;2023-07-20T09:12:42;21.70;61.50
70068;DHT22;57425;51.616;6.680;2023-07-20T09:15:10;21.70;61.30
70068;DHT22;57425;51.616;6.680;2023-07-20T09:17:35;21.70;61.50
70068;DHT22;57425;51.616;6.680;2023-07-20T09:20:06;21.70;61.40
70068;DHT22;57425;51.616;6.680;2023-07-20T09:22:33;21.70;61.60
70068;DHT22;57425;51.616;6.680;2023-07-20T09:24:59;21.80;61.50
70068;DHT22;57425;51.616;6.680;2023-07-20T09:27:38;21.80;61.50
70068;DHT22;57425;51.616;6.680;2023-07-20T09:30:05;21.80;61.00
70068;DHT22;57425;51.616;6.680;2023-07-20T09:32:44;21.90;61.30
70068;DHT22;57425;51.616;6.680;2023-07-20T09:35:14;21.90;61.10
70068;DHT22;57425;51.616;6.680;2023-07-20T09:37:45;21.90;61.20
70068;DHT22;57425;51.616;6.680;2023-07-20T09:40:15;21.90;61.20
70068;DHT22;57425;51.616;6.680;2023-07-20T09:42:41;21.90;60.80
70068;DHT22;57425;51.616;6.680;2023-07-20T09:45:08;22.00;61.20
70068;DHT22;57425;51.616;6.680;2023-07-20T09:47:39;22.00;60.30
70068;DHT22;57425;51.616;6.680;2023-07-20T09:50:06;22.00;60.40
70068;DHT22;57425;51.616;6.680;2023-07-20T09:52:39;22.00;59.80
70068;DHT22;57425;51.616;6.680;2023-07-20T09:55:13;22.00;59.60
70068;DHT22;57425;51.616;6.680;2023-07-20T09:57:39;22.10;59.60
70068;DHT22;57425;51.616;6.680;2023-07-20T10:00:07;22.10;59.60
70068;DHT22;57425;51.616;6.680;2023-07-20T10:02:45;22.10;59.40
70068;DHT22;57425;51.616;6.680;2023-07-20T10:05:15;22.10;59.80
70068;DHT22;57425;51.616;6.680;2023-07-20T10:07:47;22.10;59.50
70068;DHT22;57425;51.616;6.680;2023-07-20T10:10:15;22.20;59.30
70068;DHT22;57425;51.616;6.680;2023-07-20T10:12:42;22.20;59.20
70068;DHT22;57425;51.616;6.680;2023-07-20T10:15:10;22.20;59.20
70068;DHT22;57425;51.616;6.680;2023-07-20T10:18:12;22.20;58.80
70068;DHT22;57425;51.616;6.680;2023-07-20T10:20:40;22.20;58.10
70068;DHT22;57425;51.616;6.680;2023-07-20T10:23:07;22.30;58.50
70068;DHT22;57425;51.616;6.680;2023-07-20T10:25:33;22.30;58.60
70068;DHT22;57425;51.616;6.680;2023-07-20T10:28:04;22.30;58.40
70068;DHT22;57425;51.616;6.680;2023-07-20T10:30:32;22.30;58.20
70068;DHT22;57425;51.616;6.680;2023-07-20T10:33:00;22.40;58.40
70068;DHT22;57425;51.616;6.680;2023-07-20T10:35:28;22.40;58.20
70068;DHT22;57425;51.616;6.680;2023-07-20T10:38:03;22.40;58.10
70068;DHT22;57425;51.616;6.680;2023-07-20T10:40:34;22.40;57.90
70068;DHT22;57425;51.616;6.680;2023-07-20T10:43:04;22.40;58.00
70068;DHT22;57425;51.616;6.680;2023-07-20T10:48:03;22.50;57.80
70068;DHT22;57425;51.616;6.680;2023-07-20T10:50:29;22.50;58.10
70068;DHT22;57425;51.616;6.680;2023-07-20T10:53:09;22.50;58.40
70068;DHT22;57425;51.616;6.680;2023-07-20T10:55:35;22.50;58.50
70068;DHT22;57425;51.616;6.680;2023-07-20T10:58:09;22.60;58.30
70068;DHT22;57425;51.616;6.680;2023-07-20T11:00:35;22.60;58.40
70068;DHT22;57425;51.616;6.680;2023-07-20T11:03:01;22.60;58.00
70068;DHT22;57425;51.616;6.680;2023-07-20T11:05:37;22.70;57.80
70068;DHT22;57425;51.616;6.680;2023-07-20T11:08:12;22.70;57.50
70068;DHT22;57425;51.616;6.680;2023-07-20T11:11:28;22.70;57.60
70068;DHT22;57425;51.616;6.680;2023-07-20T11:14:02;22.70;57.80
70068;DHT22;57425;51.616;6.680;2023-07-20T11:16:38;22.70;58.10
70068;DHT22;57425;51.616;6.680;2023-07-20T11:19:04;22.80;57.70
70068;DHT22;57425;51.616;6.680;2023-07-20T11:21:36;22.80;57.60
70068;DHT22;57425;51.616;6.680;2023-07-20T11:24:06;22.80;57.30
70068;DHT22;57425;51.616;6.680;2023-07-20T11:26:47;22.80;57.10
70068;DHT22;57425;51.616;6.680;2023-07-20T11:29:16;22.90;56.40
70068;DHT22;57425;51.616;6.680;2023-07-20T11:31:43;22.80;56.80
70068;DHT22;57425;51.616;6.680;2023-07-20T11:34:14;22.90;56.70
70068;DHT22;57425;51.616;6.680;2023-07-20T11:36:40;22.90;56.80
70068;DHT22;57425;51.616;6.680;2023-07-20T11:39:10;22.90;56.40
70068;DHT22;57425;51.616;6.680;2023-07-20T11:41:36;22.90;56.40
70068;DHT22;57425;51.616;6.680;2023-07-20T11:44:02;22.90;56.40
70068;DHT22;57425;51.616;6.680;2023-07-20T11:46:28;23.00;56.20
70068;DHT22;57425;51.616;6.680;2023-07-20T11:48:58;22.90;56.20
70068;DHT22;57425;51.616;6.680;2023-07-20T11:53:55;23.00;56.30
70068;DHT22;57425;51.616;6.680;2023-07-20T11:56:20;23.10;57.00
70068;DHT22;57425;51.616;6.680;2023-07-20T11:58:48;23.10;57.00
70068;DHT22;57425;51.616;6.680;2023-07-20T12:01:14;23.10;57.20
70068;DHT22;57425;51.616;6.680;2023-07-20T12:03:42;23.10;57.30
70068;DHT22;57425;51.616;6.680;2023-07-20T12:06:08;23.10;57.00
70068;DHT22;57425;51.616;6.680;2023-07-20T12:08:34;23.20;57.00
70068;DHT22;57425;51.616;6.680;2023-07-20T12:11:00;23.20;56.70
70068;DHT22;57425;51.616;6.680;2023-07-20T12:13:44;23.20;57.00
70068;DHT22;57425;51.616;6.680;2023-07-20T12:16:14;23.30;57.20
70068;DHT22;57425;51.616;6.680;2023-07-20T12:18:43;23.30;57.00
70068;DHT22;57425;51.616;6.680;2023-07-20T12:21:09;23.30;57.00
70068;DHT22;57425;51.616;6.680;2023-07-20T12:23:40;23.30;56.70
70068;DHT22;57425;51.616;6.680;2023-07-20T12:26:07;23.30;56.60
70068;DHT22;57425;51.616;6.680;2023-07-20T12:28:35;23.30;57.00
70068;DHT22;57425;51.616;6.680;2023-07-20T12:31:01;23.30;56.60
70068;DHT22;57425;51.616;6.680;2023-07-20T12:33:26;23.40;57.20
70068;DHT22;57425;51.616;6.680;2023-07-20T12:35:52;23.40;57.10
70068;DHT22;57425;51.616;6.680;2023-07-20T12:40:47;23.50;84.50
70068;DHT22;57425;51.616;6.680;2023-07-20T12:43:13;23.50;56.80
70068;DHT22;57425;51.616;6.680;2023-07-20T12:45:39;23.50;56.50
70068;DHT22;57425;51.616;6.680;2023-07-20T12:48:05;23.50;56.40
70068;DHT22;57425;51.616;6.680;2023-07-20T12:50:30;23.50;56.60
70068;DHT22;57425;51.616;6.680;2023-07-20T12:52:56;23.50;56.80
70068;DHT22;57425;51.616;6.680;2023-07-20T12:55:21;23.60;57.00
70068;DHT22;57425;51.616;6.680;2023-07-20T12:57:47;23.60;56.70
70068;DHT22;57425;51.616;6.680;2023-07-20T13:00:14;23.60;56.90
70068;DHT22;57425;51.616;6.680;2023-07-20T13:02:40;23.60;56.40
70068;DHT22;57425;51.616;6.680;2023-07-20T13:05:07;23.60;55.80
70068;DHT22;57425;51.616;6.680;2023-07-20T13:07:34;23.60;55.80
70068;DHT22;57425;51.616;6.680;2023-07-20T13:10:01;23.60;56.00
70068;DHT22;57425;51.616;6.680;2023-07-20T13:12:28;23.60;56.40
70068;DHT22;57425;51.616;6.680;2023-07-20T13:14:55;23.60;56.60
70068;DHT22;57425;51.616;6.680;2023-07-20T13:17:22;23.70;56.00
70068;DHT22;57425;51.616;6.680;2023-07-20T13:19:48;23.70;55.90
70068;DHT22;57425;51.616;6.680;2023-07-20T13:22:13;23.70;55.90
70068;DHT22;57425;51.616;6.680;2023-07-20T13:24:40;23.70;56.10
70068;DHT22;57425;51.616;6.680;2023-07-20T13:27:06;23.70;56.40
70068;DHT22;57425;51.616;6.680;2023-07-20T13:29:32;23.70;56.40
70068;DHT22;57425;51.616;6.680;2023-07-20T13:31:59;23.80;56.10
70068;DHT22;57425;51.616;6.680;2023-07-20T13:34:25;23.80;56.00
70068;DHT22;57425;51.616;6.680;2023-07-20T13:36:51;23.80;55.70
70068;DHT22;57425;51.616;6.680;2023-07-20T13:39:16;23.80;56.20
70068;DHT22;57425;51.616;6.680;2023-07-20T13:41:42;23.80;56.10
70068;DHT22;57425;51.616;6.680;2023-07-20T13:44:08;23.90;56.50
70068;DHT22;57425;51.616;6.680;2023-07-20T13:46:34;23.90;56.10
70068;DHT22;57425;51.616;6.680;2023-07-20T13:48:59;23.90;55.40
70068;DHT22;57425;51.616;6.680;2023-07-20T13:51:25;23.90;55.60
70068;DHT22;57425;51.616;6.680;2023-07-20T13:53:51;23.90;55.40
70068;DHT22;57425;51.616;6.680;2023-07-20T13:56:17;23.90;55.40
70068;DHT22;57425;51.616;6.680;2023-07-20T13:58:43;23.90;55.40
70068;DHT22;57425;51.616;6.680;2023-07-20T14:01:08;23.90;55.50
70068;DHT22;57425;51.616;6.680;2023-07-20T14:03:34;24.00;55.50
70068;DHT22;57425;51.616;6.680;2023-07-20T14:05:59;24.00;55.20
70068;DHT22;57425;51.616;6.680;2023-07-20T14:08:25;24.00;55.60
70068;DHT22;57425;51.616;6.680;2023-07-20T14:10:50;24.00;55.70
70068;DHT22;57425;51.616;6.680;2023-07-20T14:13:16;23.90;55.90
70068;DHT22;57425;51.616;6.680;2023-07-20T14:15:42;24.00;55.70
70068;DHT22;57425;51.616;6.680;2023-07-20T14:18:07;24.00;56.00
70068;DHT22;57425;51.616;6.680;2023-07-20T14:20:33;24.00;55.80
70068;DHT22;57425;51.616;6.680;2023-07-20T14:22:58;24.00;56.50
70068;DHT22;57425;51.616;6.680;2023-07-20T14:25:24;24.00;56.10
70068;DHT22;57425;51.616;6.680;2023-07-20T14:27:49;24.00;56.20
70068;DHT22;57425;51.616;6.680;2023-07-20T14:30:15;24.00;55.90
70068;DHT22;57425;51.616;6.680;2023-07-20T14:32:41;24.00;55.90
70068;DHT22;57425;51.616;6.680;2023-07-20T14:35:07;24.00;57.00
70068;DHT22;57425;51.616;6.680;2023-07-20T14:37:34;24.00;57.40
70068;DHT22;57425;51.616;6.680;2023-07-20T14:40:00;24.00;57.10
70068;DHT22;57425;51.616;6.680;2023-07-20T14:42:26;24.00;56.80
70068;DHT22;57425;51.616;6.680;2023-07-20T14:44:51;24.10;56.20
70068;DHT22;57425;51.616;6.680;2023-07-20T14:47:17;24.00;56.30
70068;DHT22;57425;51.616;6.680;2023-07-20T14:49:43;24.00;56.50
70068;DHT22;57425;51.616;6.680;2023-07-20T14:52:09;24.10;56.30
70068;DHT22;57425;51.616;6.680;2023-07-20T14:54:35;24.10;56.20
70068;DHT22;57425;51.616;6.680;2023-07-20T14:57:01;24.10;55.70
70068;DHT22;57425;51.616;6.680;2023-07-20T14:59:26;24.10;55.60
70068;DHT22;57425;51.616;6.680;2023-07-20T15:01:52;24.10;55.40
70068;DHT22;57425;51.616;6.680;2023-07-20T15:04:18;24.10;55.30
70068;DHT22;57425;51.616;6.680;2023-07-20T15:06:44;24.10;55.70
70068;DHT22;57425;51.616;6.680;2023-07-20T15:09:09;24.10;55.00
70068;DHT22;57425;51.616;6.680;2023-07-20T15:11:36;24.10;55.30
70068;DHT22;57425;51.616;6.680;2023-07-20T15:14:02;24.10;55.30
70068;DHT22;57425;51.616;6.680;2023-07-20T15:16:28;24.10;55.50
70068;DHT22;57425;51.616;6.680;2023-07-20T15:18:53;24.10;55.30
70068;DHT22;57425;51.616;6.680;2023-07-20T15:21:19;24.10;54.80
70068;DHT22;57425;51.616;6.680;2023-07-20T15:23:45;24.10;54.80
70068;DHT22;57425;51.616;6.680;2023-07-20T15:26:11;24.10;54.80
70068;DHT22;57425;51.616;6.680;2023-07-20T15:28:38;24.10;54.70
70068;DHT22;57425;51.616;6.680;2023-07-20T15:31:04;24.10;54.60
70068;DHT22;57425;51.616;6.680;2023-07-20T15:33:30;24.20;54.70
70068;DHT22;57425;51.616;6.680;2023-07-20T15:35:56;24.10;55.10
70068;DHT22;57425;51.616;6.680;2023-07-20T15:38:22;24.20;55.20
70068;DHT22;57425;51.616;6.680;2023-07-20T15:40:48;24.20;55.20
70068;DHT22;57425;51.616;6.680;2023-07-20T15:43:16;24.20;55.60
70068;DHT22;57425;51.616;6.680;2023-07-20T15:45:46;24.20;56.10